MiSS Sarah — WDE9595 — position and weather

sailwx.info

Track history (hours):
 
Tides and Currents Weather Stations Pressure Air Temp Water Temp Dewpoint Dewpoint Depression Visibility Wind Speed Wind Dir Waves Ship Positions

MiSS Sarah

Owner: Higman Barge Lines, Inc, Orange, TX. More information available from US FCC via Universal Licensing System and Coast Guard Vessel Documentation Center.

Last reported at 2016-Jul-23 12:30 UTC. Time now 2016-Jul-23 17:00 UTC.
Position N 29°49' W 093°58'.

Length 24 m; draft 9 m.

Type: Towing. MMSI: 367419040.

Date/timePositionNaut miles runAvg speedWind from/ knotsBaromVisibWave heightAir tempDewpointWater temp
2016-Jul-23 12:30N 29°49' W 093°58'0 0.0
2016-Jul-23 11:32N 29°49' W 093°58'0 0.0
2016-Jul-23 10:31N 29°49' W 093°58'0 0.0
2016-Jul-23 09:33N 29°49' W 093°58'0 0.0
2016-Jul-23 06:28N 29°49' W 093°58'0 0.0
2016-Jul-23 04:33N 29°49' W 093°58'0 0.0
2016-Jul-22 10:27N 29°49' W 093°58'0 0.0
2016-Jul-22 09:19N 29°49' W 093°58'0 0.0
2016-Jul-21 14:24N 29°49' W 093°58'0 0.0
2016-Jul-21 13:20N 29°49' W 093°58'0 0.0
2016-Jul-21 12:31N 29°49' W 093°58'0 0.0
2016-Jul-21 11:16N 29°49' W 093°58'0 0.0
2016-Jul-21 10:33N 29°49' W 093°58'0 0.0
2016-Jul-21 09:31N 29°49' W 093°58'0 0.0
2016-Jul-21 08:33N 29°49' W 093°58'0 0.0
2016-Jul-21 07:17N 29°49' W 093°58'0 0.0
2016-Jul-21 06:33N 29°49' W 093°58'0 0.0
2016-Jul-20 14:06N 29°49' W 093°58'0 0.0
2016-Jul-20 13:33N 29°49' W 093°58'0 0.0
2016-Jul-20 12:32N 29°49' W 093°58'0 0.0
2016-Jul-20 02:21N 29°49' W 093°58'0 0.0
2016-Jul-19 19:30N 29°49' W 093°58'0 0.0
2016-Jul-19 18:21N 29°49' W 093°58'0 0.0
2016-Jul-19 12:33N 29°49' W 093°58'0 0.0
2016-Jul-19 10:05N 29°49' W 093°58'0 0.0
2016-Jul-19 08:33N 29°49' W 093°58'0 0.0
2016-Jul-19 07:33N 29°49' W 093°58'0 0.0
2016-Jul-19 04:33N 29°49' W 093°58'0 0.0
2016-Jul-18 14:32N 29°49' W 093°58'7 0.4
2016-Jul-17 19:31N 29°55' W 093°53'7 7.1
2016-Jul-17 18:33N 29°59' W 093°48'6 6.5
2016-Jul-17 17:34N 30°03' W 093°42'7 6.5
2016-Jul-17 16:33N 30°04' W 093°34'6 6.1
2016-Jul-17 15:33N 30°04' W 093°27'6 5.9
2016-Jul-17 14:33N 30°04' W 093°21'3 3.2
2016-Jul-17 13:33N 30°05' W 093°17'3 2.6
2016-Jul-17 12:33N 30°02' W 093°16'6 6.1
2016-Jul-17 11:33N 29°58' W 093°11'6 5.8
2016-Jul-17 10:33N 29°56' W 093°05'6 5.5
2016-Jul-17 09:33N 29°56' W 092°58'6 6.0
2016-Jul-17 08:33N 29°57' W 092°51'5 5.2
2016-Jul-17 07:32N 29°58' W 092°45'6 6.0
2016-Jul-17 06:32N 29°56' W 092°39'12 5.9
2016-Jul-17 04:33N 29°53' W 092°26'5 5.2
2016-Jul-17 03:33N 29°51' W 092°21'5 4.7
2016-Jul-17 02:33N 29°48' W 092°16'5 4.8
2016-Jul-17 01:33N 29°47' W 092°11'0 0.0
2016-Jul-17 00:33N 29°47' W 092°11'4 3.9
2016-Jul-16 23:33N 29°48' W 092°06'5 5.1
2016-Jul-16 22:33N 29°49' W 092°01'11 5.1
2016-Jul-16 20:26N 29°47' W 091°49'7 5.7
2016-Jul-16 19:15N 29°46' W 091°41'38 5.6
2016-Jul-16 12:28N 29°36' W 090°59'6 5.6
2016-Jul-16 11:29N 29°33' W 090°54'5 5.8
2016-Jul-16 10:33N 29°32' W 090°47'5 4.6
2016-Jul-16 09:33N 29°35' W 090°43'4 3.8
2016-Jul-16 08:33N 29°36' W 090°39'5 5.1
2016-Jul-16 07:33N 29°34' W 090°33'24 4.6
2016-Jul-16 02:23N 29°44' W 090°09'4 4.5
2016-Jul-16 01:29N 29°46' W 090°05'0 0.2
2016-Jul-16 00:27N 29°46' W 090°04'2 2.1
2016-Jul-15 23:33N 29°48' W 090°04'5 5.4
2016-Jul-15 22:33N 29°53' W 090°00'0 0.4
2016-Jul-15 21:33N 29°53' W 090°00'0 0.4
2016-Jul-15 20:33N 29°53' W 089°60'3 2.5
2016-Jul-15 19:32N 29°55' W 089°58'0 0.1
2016-Jul-15 18:33N 29°55' W 089°58'0 0.0
2016-Jul-15 17:33N 29°55' W 089°58'1 1.4
2016-Jul-15 16:33N 29°56' W 089°59'3 2.7
2016-Jul-15 15:33N 29°58' W 090°02'0 0.3
2016-Jul-15 14:33N 29°58' W 090°01'2 2.1
2016-Jul-15 13:33N 29°60' W 089°60'0 0.0
2016-Jul-15 12:33N 29°60' W 089°60'0 0.0
2016-Jul-15 11:33N 29°60' W 089°60'0 0.0
2016-Jul-15 10:33N 29°60' W 089°60'0 0.0
2016-Jul-15 09:33N 29°60' W 089°60'0 0.0
2016-Jul-15 08:33N 29°60' W 089°60'0 0.0
2016-Jul-15 07:33N 29°60' W 089°60'0 0.0
2016-Jul-15 06:33N 29°60' W 089°60'0 0.0
2016-Jul-15 05:33N 29°60' W 089°60'0 0.0
2016-Jul-15 04:33N 29°60' W 089°60'0 0.0
2016-Jul-15 03:33N 29°60' W 089°60'0 0.0
2016-Jul-15 02:33N 29°60' W 089°60'0 0.0
2016-Jul-15 01:33N 29°60' W 089°60'0 0.0
2016-Jul-15 00:33N 29°60' W 089°60'0 0.0
2016-Jul-14 23:33N 29°60' W 089°60'0 0.0
2016-Jul-14 22:33N 29°60' W 089°60'0 0.0
2016-Jul-14 21:33N 29°60' W 089°60'0 0.0
2016-Jul-14 20:33N 29°60' W 089°60'0 0.0
2016-Jul-14 19:33N 29°60' W 089°60'0 0.0
2016-Jul-14 18:33N 29°60' W 089°60'0 0.0
2016-Jul-14 17:33N 29°60' W 089°60'0 0.0
2016-Jul-14 16:33N 29°60' W 089°60'0 0.0
2016-Jul-14 15:33N 29°60' W 089°60'0 0.0
2016-Jul-14 14:33N 29°60' W 089°60'0 0.1
2016-Jul-14 13:33N 29°60' W 089°60'0 0.0
2016-Jul-14 12:34N 29°60' W 089°60'0 0.0
2016-Jul-14 11:33N 29°60' W 089°60'0 0.0
2016-Jul-14 10:33N 29°60' W 089°60'0 0.0
2016-Jul-14 09:34N 29°60' W 089°60'0 0.0
2016-Jul-14 08:33N 29°60' W 089°60'0 0.0
2016-Jul-14 07:33N 29°60' W 089°60'0 0.0
2016-Jul-14 06:33N 29°60' W 089°60'0 0.0
2016-Jul-14 05:33N 29°60' W 089°60'0 0.0
2016-Jul-14 04:33N 29°60' W 089°60'2 2.5
2016-Jul-14 03:33N 30°00' W 089°57'  
Track history (hours):
 
Tides and Currents Weather Stations Pressure Air Temp Water Temp Dewpoint Dewpoint Depression Visibility Wind Speed Wind Dir Waves Ship Positions

MiSS Sarah

Owner: Higman Barge Lines, Inc, Orange, TX. More information available from US FCC via Universal Licensing System and Coast Guard Vessel Documentation Center.

Last reported at 2016-Jul-23 12:30 UTC. Time now 2016-Jul-23 17:00 UTC.
Position N 29°49' W 093°58'.

Length 24 m; draft 9 m.

Type: Towing. MMSI: 367419040.

Date/timePositionNaut miles runAvg speedWind from/ knotsBaromVisibWave heightAir tempDewpointWater temp
2016-Jul-23 12:30N 29°49' W 093°58'0 0.0
2016-Jul-23 11:32N 29°49' W 093°58'0 0.0
2016-Jul-23 10:31N 29°49' W 093°58'0 0.0
2016-Jul-23 09:33N 29°49' W 093°58'0 0.0
2016-Jul-23 06:28N 29°49' W 093°58'0 0.0
2016-Jul-23 04:33N 29°49' W 093°58'0 0.0
2016-Jul-22 10:27N 29°49' W 093°58'0 0.0
2016-Jul-22 09:19N 29°49' W 093°58'0 0.0
2016-Jul-21 14:24N 29°49' W 093°58'0 0.0
2016-Jul-21 13:20N 29°49' W 093°58'0 0.0
2016-Jul-21 12:31N 29°49' W 093°58'0 0.0
2016-Jul-21 11:16N 29°49' W 093°58'0 0.0
2016-Jul-21 10:33N 29°49' W 093°58'0 0.0
2016-Jul-21 09:31N 29°49' W 093°58'0 0.0
2016-Jul-21 08:33N 29°49' W 093°58'0 0.0
2016-Jul-21 07:17N 29°49' W 093°58'0 0.0
2016-Jul-21 06:33N 29°49' W 093°58'0 0.0
2016-Jul-20 14:06N 29°49' W 093°58'0 0.0
2016-Jul-20 13:33N 29°49' W 093°58'0 0.0
2016-Jul-20 12:32N 29°49' W 093°58'0 0.0
2016-Jul-20 02:21N 29°49' W 093°58'0 0.0
2016-Jul-19 19:30N 29°49' W 093°58'0 0.0
2016-Jul-19 18:21N 29°49' W 093°58'0 0.0
2016-Jul-19 12:33N 29°49' W 093°58'0 0.0
2016-Jul-19 10:05N 29°49' W 093°58'0 0.0
2016-Jul-19 08:33N 29°49' W 093°58'0 0.0
2016-Jul-19 07:33N 29°49' W 093°58'0 0.0
2016-Jul-19 04:33N 29°49' W 093°58'0 0.0
2016-Jul-18 14:32N 29°49' W 093°58'7 0.4
2016-Jul-17 19:31N 29°55' W 093°53'7 7.1
2016-Jul-17 18:33N 29°59' W 093°48'6 6.5
2016-Jul-17 17:34N 30°03' W 093°42'7 6.5
2016-Jul-17 16:33N 30°04' W 093°34'6 6.1
2016-Jul-17 15:33N 30°04' W 093°27'6 5.9
2016-Jul-17 14:33N 30°04' W 093°21'3 3.2
2016-Jul-17 13:33N 30°05' W 093°17'3 2.6
2016-Jul-17 12:33N 30°02' W 093°16'6 6.1
2016-Jul-17 11:33N 29°58' W 093°11'6 5.8
2016-Jul-17 10:33N 29°56' W 093°05'6 5.5
2016-Jul-17 09:33N 29°56' W 092°58'6 6.0
2016-Jul-17 08:33N 29°57' W 092°51'5 5.2
2016-Jul-17 07:32N 29°58' W 092°45'6 6.0
2016-Jul-17 06:32N 29°56' W 092°39'12 5.9
2016-Jul-17 04:33N 29°53' W 092°26'5 5.2
2016-Jul-17 03:33N 29°51' W 092°21'5 4.7
2016-Jul-17 02:33N 29°48' W 092°16'5 4.8
2016-Jul-17 01:33N 29°47' W 092°11'0 0.0
2016-Jul-17 00:33N 29°47' W 092°11'4 3.9
2016-Jul-16 23:33N 29°48' W 092°06'5 5.1
2016-Jul-16 22:33N 29°49' W 092°01'11 5.1
2016-Jul-16 20:26N 29°47' W 091°49'7 5.7
2016-Jul-16 19:15N 29°46' W 091°41'38 5.6
2016-Jul-16 12:28N 29°36' W 090°59'6 5.6
2016-Jul-16 11:29N 29°33' W 090°54'5 5.8
2016-Jul-16 10:33N 29°32' W 090°47'5 4.6
2016-Jul-16 09:33N 29°35' W 090°43'4 3.8
2016-Jul-16 08:33N 29°36' W 090°39'5 5.1
2016-Jul-16 07:33N 29°34' W 090°33'24 4.6
2016-Jul-16 02:23N 29°44' W 090°09'4 4.5
2016-Jul-16 01:29N 29°46' W 090°05'0 0.2
2016-Jul-16 00:27N 29°46' W 090°04'2 2.1
2016-Jul-15 23:33N 29°48' W 090°04'5 5.4
2016-Jul-15 22:33N 29°53' W 090°00'0 0.4
2016-Jul-15 21:33N 29°53' W 090°00'0 0.4
2016-Jul-15 20:33N 29°53' W 089°60'3 2.5
2016-Jul-15 19:32N 29°55' W 089°58'0 0.1
2016-Jul-15 18:33N 29°55' W 089°58'0 0.0
2016-Jul-15 17:33N 29°55' W 089°58'1 1.4
2016-Jul-15 16:33N 29°56' W 089°59'3 2.7
2016-Jul-15 15:33N 29°58' W 090°02'0 0.3
2016-Jul-15 14:33N 29°58' W 090°01'2 2.1
2016-Jul-15 13:33N 29°60' W 089°60'0 0.0
2016-Jul-15 12:33N 29°60' W 089°60'0 0.0
2016-Jul-15 11:33N 29°60' W 089°60'0 0.0
2016-Jul-15 10:33N 29°60' W 089°60'0 0.0
2016-Jul-15 09:33N 29°60' W 089°60'0 0.0
2016-Jul-15 08:33N 29°60' W 089°60'0 0.0
2016-Jul-15 07:33N 29°60' W 089°60'0 0.0
2016-Jul-15 06:33N 29°60' W 089°60'0 0.0
2016-Jul-15 05:33N 29°60' W 089°60'0 0.0
2016-Jul-15 04:33N 29°60' W 089°60'0 0.0
2016-Jul-15 03:33N 29°60' W 089°60'0 0.0
2016-Jul-15 02:33N 29°60' W 089°60'0 0.0
2016-Jul-15 01:33N 29°60' W 089°60'0 0.0
2016-Jul-15 00:33N 29°60' W 089°60'0 0.0
2016-Jul-14 23:33N 29°60' W 089°60'0 0.0
2016-Jul-14 22:33N 29°60' W 089°60'0 0.0
2016-Jul-14 21:33N 29°60' W 089°60'0 0.0
2016-Jul-14 20:33N 29°60' W 089°60'0 0.0
2016-Jul-14 19:33N 29°60' W 089°60'0 0.0
2016-Jul-14 18:33N 29°60' W 089°60'0 0.0
2016-Jul-14 17:33N 29°60' W 089°60'0 0.0
2016-Jul-14 16:33N 29°60' W 089°60'0 0.0
2016-Jul-14 15:33N 29°60' W 089°60'0 0.0
2016-Jul-14 14:33N 29°60' W 089°60'0 0.1
2016-Jul-14 13:33N 29°60' W 089°60'0 0.0
2016-Jul-14 12:34N 29°60' W 089°60'0 0.0
2016-Jul-14 11:33N 29°60' W 089°60'0 0.0
2016-Jul-14 10:33N 29°60' W 089°60'0 0.0
2016-Jul-14 09:34N 29°60' W 089°60'0 0.0
2016-Jul-14 08:33N 29°60' W 089°60'0 0.0
2016-Jul-14 07:33N 29°60' W 089°60'0 0.0
2016-Jul-14 06:33N 29°60' W 089°60'0 0.0
2016-Jul-14 05:33N 29°60' W 089°60'0 0.0
2016-Jul-14 04:33N 29°60' W 089°60'2 2.5
2016-Jul-14 03:33N 30°00' W 089°57'  

Dump ship's entire track history